createdAt,value
2022-08-01T00:00:38.190Z,21.57
2022-08-01T00:03:05.568Z,21.44
2022-08-01T00:05:32.925Z,21.52
2022-08-01T00:08:00.256Z,21.47
2022-08-01T00:10:27.546Z,21.35
2022-08-01T00:12:54.650Z,21.20
2022-08-01T00:15:21.657Z,21.24
2022-08-01T00:17:48.729Z,21.23
2022-08-01T00:20:16.173Z,21.14
2022-08-01T00:22:43.300Z,21.21
2022-08-01T00:25:10.659Z,21.35
2022-08-01T00:27:38.081Z,21.41
2022-08-01T00:30:13.794Z,21.21
2022-08-01T00:32:43.292Z,21.32
2022-08-01T00:35:10.976Z,21.28
2022-08-01T00:37:37.929Z,21.28
2022-08-01T00:40:05.771Z,21.24
2022-08-01T00:42:32.889Z,21.18
2022-08-01T00:45:00.190Z,21.35
2022-08-01T00:47:27.466Z,21.42
2022-08-01T00:49:54.694Z,21.48
2022-08-01T00:52:21.817Z,21.46
2022-08-01T00:54:49.352Z,21.49
2022-08-01T00:57:16.544Z,21.50
2022-08-01T01:00:05.806Z,21.39
2022-08-01T01:02:33.407Z,21.54
2022-08-01T01:05:00.586Z,21.60
2022-08-01T01:07:33.753Z,21.64
2022-08-01T01:10:13.311Z,21.70
2022-08-01T01:12:57.765Z,21.76
2022-08-01T01:15:41.386Z,21.68
2022-08-01T01:18:21.654Z,21.66
2022-08-01T01:21:17.777Z,21.76
2022-08-01T01:24:00.529Z,21.72
2022-08-01T01:26:30.626Z,21.68
2022-08-01T01:29:17.001Z,21.55
2022-08-01T01:31:57.007Z,21.60
2022-08-01T01:34:25.734Z,21.63
2022-08-01T01:36:57.977Z,21.69
2022-08-01T01:39:27.094Z,21.67
2022-08-01T01:41:56.336Z,21.61
2022-08-01T01:44:23.337Z,21.63
2022-08-01T01:46:53.137Z,21.61
2022-08-01T01:49:24.738Z,21.56
2022-08-01T01:52:02.648Z,21.29
2022-08-01T01:54:35.325Z,21.34
2022-08-01T01:57:05.186Z,21.24
2022-08-01T01:59:36.186Z,21.19
2022-08-01T02:02:06.907Z,21.16
2022-08-01T02:04:37.727Z,21.23
2022-08-01T02:07:07.087Z,21.26
2022-08-01T02:09:36.846Z,21.14
2022-08-01T02:12:07.945Z,21.20
2022-08-01T02:14:39.167Z,21.19
2022-08-01T02:17:06.420Z,21.23
2022-08-01T02:19:37.041Z,21.28
2022-08-01T02:22:11.205Z,21.30
2022-08-01T02:25:00.686Z,21.28
2022-08-01T02:27:55.897Z,21.21
2022-08-01T02:30:26.067Z,20.89
2022-08-01T02:33:03.335Z,20.84
2022-08-01T02:35:33.917Z,20.95
2022-08-01T02:38:04.889Z,20.96
2022-08-01T02:40:34.965Z,20.93
2022-08-01T02:43:04.926Z,20.97
2022-08-01T02:45:32.930Z,21.00
2022-08-01T02:48:06.868Z,21.02
2022-08-01T02:50:35.845Z,21.06
2022-08-01T02:53:05.093Z,21.05
2022-08-01T02:55:35.408Z,21.05
2022-08-01T02:58:04.441Z,20.96
2022-08-01T03:00:33.896Z,20.81
2022-08-01T03:03:03.043Z,20.83
2022-08-01T03:05:33.066Z,20.91
2022-08-01T03:08:03.543Z,20.88
2022-08-01T03:10:32.661Z,20.88
2022-08-01T03:13:03.500Z,20.88
2022-08-01T03:15:33.110Z,20.87
2022-08-01T03:18:02.529Z,20.87
2022-08-01T03:20:33.728Z,20.76
2022-08-01T03:23:07.261Z,20.74
2022-08-01T03:25:37.911Z,20.76
2022-08-01T03:28:07.777Z,20.78
2022-08-01T03:30:36.954Z,20.82
2022-08-01T03:33:04.530Z,20.71
2022-08-01T03:35:39.335Z,20.72
2022-08-01T03:38:16.451Z,20.73
2022-08-01T03:41:24.295Z,20.60
2022-08-01T03:44:19.130Z,20.63
2022-08-01T03:46:49.012Z,20.69
2022-08-01T03:49:22.824Z,20.74
2022-08-01T03:51:51.255Z,20.82
2022-08-01T03:54:25.339Z,20.85
2022-08-01T03:56:53.329Z,20.88
2022-08-01T03:59:21.785Z,20.89
2022-08-01T04:01:50.073Z,20.92
2022-08-01T04:04:17.485Z,20.93
2022-08-01T04:06:47.406Z,20.97
2022-08-01T04:09:14.673Z,20.94
2022-08-01T04:11:42.899Z,20.85
2022-08-01T04:14:09.997Z,20.92
2022-08-01T04:16:37.086Z,20.95
2022-08-01T04:19:04.449Z,20.98
2022-08-01T04:21:33.734Z,20.95
2022-08-01T04:24:10.374Z,20.92
2022-08-01T04:26:40.275Z,20.93
2022-08-01T04:29:09.734Z,20.77
2022-08-01T04:31:38.369Z,20.79
2022-08-01T04:34:07.138Z,20.78
2022-08-01T04:36:37.750Z,20.66
2022-08-01T04:39:07.090Z,20.65
2022-08-01T04:41:35.169Z,20.55
2022-08-01T04:44:03.883Z,20.55
2022-08-01T04:46:31.115Z,20.49
2022-08-01T04:48:58.592Z,20.48
2022-08-01T04:51:25.744Z,20.57
2022-08-01T04:53:53.003Z,20.60
2022-08-01T04:56:21.965Z,20.64
2022-08-01T04:58:49.415Z,20.72
2022-08-01T05:01:16.702Z,20.59
2022-08-01T05:03:44.128Z,20.65
2022-08-01T05:06:11.169Z,20.77
2022-08-01T05:08:38.297Z,20.80
2022-08-01T05:11:05.355Z,20.82
2022-08-01T05:13:32.379Z,20.90
2022-08-01T05:15:59.385Z,20.93
2022-08-01T05:18:28.775Z,21.00
2022-08-01T05:20:56.547Z,21.06
2022-08-01T05:23:30.322Z,21.09
2022-08-01T05:26:11.053Z,21.03
2022-08-01T05:28:38.025Z,21.17
2022-08-01T05:31:05.241Z,21.25
2022-08-01T05:33:32.300Z,21.41
2022-08-01T05:35:59.378Z,21.57
2022-08-01T05:38:26.365Z,21.72
2022-08-01T05:40:53.275Z,21.88
2022-08-01T05:43:20.467Z,21.88
2022-08-01T05:45:48.366Z,22.08
2022-08-01T05:48:15.467Z,22.30
2022-08-01T05:50:42.643Z,22.46
2022-08-01T05:53:09.611Z,22.67
2022-08-01T05:55:37.183Z,22.70
2022-08-01T05:58:04.330Z,22.86
2022-08-01T06:00:31.421Z,23.00
2022-08-01T06:02:58.419Z,23.13
2022-08-01T06:05:25.527Z,23.28
2022-08-01T06:07:52.479Z,23.38
2022-08-01T06:10:19.728Z,23.40
2022-08-01T06:12:46.743Z,23.27
2022-08-01T06:15:14.765Z,23.15
2022-08-01T06:17:42.485Z,23.40
2022-08-01T06:20:10.567Z,23.54
2022-08-01T06:22:37.649Z,23.55
2022-08-01T06:25:05.975Z,23.55
2022-08-01T06:27:35.679Z,23.66
2022-08-01T06:30:02.872Z,23.73
2022-08-01T06:32:30.799Z,23.96
2022-08-01T06:34:58.298Z,24.07
2022-08-01T06:37:25.393Z,24.33
2022-08-01T06:39:52.479Z,24.54
2022-08-01T06:42:19.451Z,24.92
2022-08-01T06:44:46.725Z,24.98
2022-08-01T06:47:13.854Z,25.26
2022-08-01T06:49:40.959Z,25.31
2022-08-01T06:52:08.259Z,25.43
2022-08-01T06:54:35.687Z,25.36
2022-08-01T06:57:06.726Z,25.39
2022-08-01T06:59:34.246Z,25.64
2022-08-01T07:02:02.663Z,25.69
2022-08-01T07:04:29.759Z,25.89
2022-08-01T07:06:58.037Z,26.04
2022-08-01T07:09:25.493Z,26.40
2022-08-01T07:11:53.637Z,26.67
2022-08-01T07:14:22.353Z,26.38
2022-08-01T07:16:50.535Z,26.39
2022-08-01T07:19:18.407Z,26.55
2022-08-01T07:21:45.889Z,26.65
2022-08-01T07:24:19.481Z,26.94
2022-08-01T07:26:53.265Z,27.06
2022-08-01T07:29:25.574Z,27.02
2022-08-01T07:31:57.350Z,27.32
2022-08-01T07:34:26.041Z,27.62
2022-08-01T07:36:53.619Z,27.59
2022-08-01T07:39:21.324Z,27.67
2022-08-01T07:42:06.026Z,28.01
2022-08-01T07:44:35.727Z,28.11
2022-08-01T07:47:02.762Z,28.32
2022-08-01T07:49:30.251Z,27.86
2022-08-01T07:52:02.499Z,27.44
2022-08-01T07:54:35.268Z,27.30
2022-08-01T07:57:04.009Z,27.54
2022-08-01T07:59:31.964Z,27.84
2022-08-01T08:01:59.171Z,28.02
2022-08-01T08:04:27.335Z,28.39
2022-08-01T08:06:55.263Z,28.44
2022-08-01T08:09:22.422Z,28.48
2022-08-01T08:11:50.217Z,28.56
2022-08-01T08:14:18.353Z,28.74
2022-08-01T08:16:45.648Z,28.72
2022-08-01T08:19:13.092Z,28.60
2022-08-01T08:21:40.619Z,29.00
2022-08-01T08:24:26.814Z,29.67
2022-08-01T08:27:03.777Z,30.06
2022-08-01T08:29:33.641Z,29.98
2022-08-01T08:32:03.247Z,29.80
2022-08-01T08:34:33.729Z,30.15
2022-08-01T08:37:01.244Z,30.50
2022-08-01T08:39:30.611Z,30.39
2022-08-01T08:42:03.311Z,30.56
2022-08-01T08:44:32.974Z,30.73
2022-08-01T08:47:06.602Z,30.92
2022-08-01T08:49:37.803Z,30.87
2022-08-01T08:52:11.800Z,31.20
2022-08-01T08:54:42.132Z,31.43
2022-08-01T08:57:12.043Z,31.97
2022-08-01T08:59:41.335Z,32.53
2022-08-01T09:02:10.987Z,32.95
2022-08-01T09:04:40.326Z,33.10
2022-08-01T09:07:09.168Z,32.87
2022-08-01T09:09:36.354Z,32.87
2022-08-01T09:12:09.599Z,32.80
2022-08-01T09:14:46.200Z,32.68
2022-08-01T09:17:13.985Z,32.67
2022-08-01T09:19:43.810Z,32.84
2022-08-01T09:22:13.561Z,33.09
2022-08-01T09:24:41.919Z,33.44
2022-08-01T09:27:22.045Z,33.51
2022-08-01T09:30:01.017Z,33.57
2022-08-01T09:32:36.364Z,33.96
2022-08-01T09:35:29.957Z,33.86
2022-08-01T09:38:16.538Z,33.35
2022-08-01T09:40:52.766Z,33.09
2022-08-01T09:43:22.143Z,33.23
2022-08-01T09:45:50.732Z,33.36
2022-08-01T09:48:28.611Z,33.71
2022-08-01T09:51:05.004Z,34.21
2022-08-01T09:53:52.522Z,34.49
2022-08-01T09:56:21.764Z,34.61
2022-08-01T09:59:02.473Z,34.65
2022-08-01T10:01:43.709Z,34.48
2022-08-01T10:04:18.409Z,34.56
2022-08-01T10:06:55.318Z,34.73
2022-08-01T10:09:40.423Z,34.89
2022-08-01T10:12:15.408Z,34.65
2022-08-01T10:14:46.227Z,34.28
2022-08-01T10:17:18.363Z,34.28
2022-08-01T10:19:50.877Z,34.40
2022-08-01T10:22:21.014Z,34.41
2022-08-01T10:24:51.339Z,34.64
2022-08-01T10:27:24.299Z,34.82
2022-08-01T10:30:19.255Z,35.16
2022-08-01T10:32:54.833Z,35.40
2022-08-01T10:35:45.810Z,35.45
2022-08-01T10:38:13.682Z,35.73
2022-08-01T10:40:45.081Z,35.39
2022-08-01T10:43:21.509Z,35.41
2022-08-01T10:45:50.562Z,35.82
2022-08-01T10:48:29.874Z,36.24
2022-08-01T10:51:01.831Z,36.12
2022-08-01T10:53:31.442Z,36.12
2022-08-01T10:56:13.080Z,36.45
2022-08-01T10:58:45.795Z,36.29
2022-08-01T11:01:23.570Z,35.92
2022-08-01T11:04:02.367Z,35.64
2022-08-01T11:06:35.659Z,35.50
2022-08-01T11:09:36.387Z,35.56
2022-08-01T11:12:13.303Z,35.50
2022-08-01T11:15:29.290Z,34.99
2022-08-01T11:18:00.557Z,34.77
2022-08-01T11:20:34.633Z,34.30
2022-08-01T11:23:07.129Z,34.31
2022-08-01T11:26:04.951Z,34.30
2022-08-01T11:28:32.478Z,34.33
2022-08-01T11:31:11.551Z,33.95
2022-08-01T11:33:42.337Z,33.86
2022-08-01T11:36:14.451Z,33.85
2022-08-01T11:38:45.609Z,33.83
2022-08-01T11:41:36.893Z,33.59
2022-08-01T11:44:18.541Z,33.45
2022-08-01T11:47:15.520Z,33.21
2022-08-01T11:49:56.473Z,33.18
2022-08-01T11:52:30.590Z,32.93
2022-08-01T11:54:59.200Z,32.61
2022-08-01T11:57:34.155Z,32.38
2022-08-01T12:00:08.589Z,31.65
2022-08-01T12:02:42.253Z,30.87
2022-08-01T12:05:15.855Z,30.58
2022-08-01T12:07:44.811Z,30.29
2022-08-01T12:10:14.161Z,30.21
2022-08-01T12:12:56.575Z,30.16
2022-08-01T12:15:25.471Z,30.18
2022-08-01T12:18:08.973Z,30.07
2022-08-01T12:20:40.135Z,30.11
2022-08-01T12:23:08.649Z,30.03
2022-08-01T12:25:37.113Z,29.82
2022-08-01T12:28:10.035Z,29.89
2022-08-01T12:30:38.839Z,29.86
2022-08-01T12:33:08.999Z,29.90
2022-08-01T12:35:37.852Z,29.98
2022-08-01T12:38:26.186Z,30.74
2022-08-01T12:40:54.969Z,31.25
2022-08-01T12:43:29.000Z,31.78
2022-08-01T12:46:00.406Z,32.07
2022-08-01T12:48:28.368Z,32.43
2022-08-01T12:50:59.045Z,32.45
2022-08-01T12:53:41.068Z,32.69
2022-08-01T12:56:13.981Z,32.52
2022-08-01T12:58:41.160Z,32.30
2022-08-01T13:01:14.466Z,32.52
2022-08-01T13:03:41.959Z,32.91
2022-08-01T13:06:17.858Z,32.97
2022-08-01T13:08:46.389Z,33.12
2022-08-01T13:11:16.099Z,33.06
2022-08-01T13:13:45.159Z,33.09
2022-08-01T13:16:27.870Z,32.63
2022-08-01T13:18:59.926Z,32.76
2022-08-01T13:21:34.631Z,33.08
2022-08-01T13:24:23.994Z,32.82
2022-08-01T13:26:57.416Z,32.94
2022-08-01T13:29:44.011Z,33.19
2022-08-01T13:32:27.838Z,33.35
2022-08-01T13:35:08.960Z,33.48
2022-08-01T13:37:41.112Z,33.30
2022-08-01T13:40:10.138Z,33.38
2022-08-01T13:42:37.776Z,33.35
2022-08-01T13:45:13.943Z,33.70
2022-08-01T13:48:03.908Z,33.77
2022-08-01T13:50:30.500Z,33.70
2022-08-01T13:52:57.993Z,33.72
2022-08-01T13:55:24.928Z,33.96
2022-08-01T13:57:51.966Z,34.10
2022-08-01T14:00:19.098Z,34.00
2022-08-01T14:02:46.138Z,33.62
2022-08-01T14:05:13.879Z,33.69
2022-08-01T14:07:41.398Z,33.67
2022-08-01T14:10:19.397Z,33.74
2022-08-01T14:12:49.409Z,33.72
2022-08-01T14:15:38.569Z,33.73
2022-08-01T14:18:05.869Z,33.84
2022-08-01T14:20:34.491Z,34.00
2022-08-01T14:23:01.613Z,33.97
2022-08-01T14:26:04.160Z,33.97
2022-08-01T14:28:16.317Z,34.03
2022-08-01T14:30:43.889Z,34.00
2022-08-01T14:33:12.283Z,34.02
2022-08-01T14:36:03.461Z,33.89
2022-08-01T14:38:31.464Z,33.86
2022-08-01T14:41:00.609Z,33.79
2022-08-01T14:43:32.817Z,33.64
2022-08-01T14:46:02.171Z,33.53
2022-08-01T14:48:29.900Z,33.45
2022-08-01T14:50:58.194Z,33.47
2022-08-01T14:53:25.266Z,33.51
2022-08-01T14:55:52.327Z,33.61
2022-08-01T14:58:19.402Z,33.50
2022-08-01T15:00:46.634Z,33.35
2022-08-01T15:03:13.965Z,33.33
2022-08-01T15:05:40.989Z,33.13
2022-08-01T15:08:08.446Z,33.03
2022-08-01T15:10:36.179Z,33.05
2022-08-01T15:13:03.220Z,32.94
2022-08-01T15:15:30.741Z,32.98
2022-08-01T15:17:58.126Z,33.18
2022-08-01T15:20:26.482Z,33.30
2022-08-01T15:22:54.044Z,33.35
2022-08-01T15:25:21.205Z,33.18
2022-08-01T15:27:48.820Z,33.47
2022-08-01T15:30:16.008Z,33.64
2022-08-01T15:32:43.212Z,33.42
2022-08-01T15:35:11.460Z,33.20
2022-08-01T15:37:42.871Z,33.13
2022-08-01T15:40:12.807Z,32.98
2022-08-01T15:42:42.090Z,33.08
2022-08-01T15:45:20.662Z,33.02
2022-08-01T15:47:57.360Z,33.08
2022-08-01T15:50:24.578Z,33.11
2022-08-01T15:52:51.709Z,33.03
2022-08-01T15:55:18.807Z,32.81
2022-08-01T15:57:45.931Z,32.70
2022-08-01T16:00:13.679Z,32.74
2022-08-01T16:02:40.746Z,32.40
2022-08-01T16:05:08.571Z,32.24
2022-08-01T16:07:35.641Z,32.20
2022-08-01T16:10:22.797Z,32.13
2022-08-01T16:12:49.808Z,31.94
2022-08-01T16:15:16.842Z,31.94
2022-08-01T16:17:44.425Z,32.06
2022-08-01T16:20:12.122Z,32.00
2022-08-01T16:22:39.144Z,31.94
2022-08-01T16:25:07.190Z,31.93
2022-08-01T16:27:34.438Z,31.86
2022-08-01T16:30:06.684Z,31.66
2022-08-01T16:32:44.406Z,31.50
2022-08-01T16:35:15.193Z,31.50
2022-08-01T16:37:42.229Z,31.40
2022-08-01T16:40:09.719Z,31.31
2022-08-01T16:42:36.710Z,31.26
2022-08-01T16:45:12.790Z,31.21
2022-08-01T16:47:41.714Z,30.98
2022-08-01T16:50:09.766Z,30.83
2022-08-01T16:52:41.921Z,30.75
2022-08-01T16:55:11.128Z,30.55
2022-08-01T16:57:38.773Z,30.55
2022-08-01T17:00:11.639Z,30.50
2022-08-01T17:02:48.753Z,30.37
2022-08-01T17:05:15.961Z,30.33
2022-08-01T17:07:42.968Z,30.26
2022-08-01T17:10:10.596Z,30.10
2022-08-01T17:12:40.003Z,30.07
2022-08-01T17:15:08.118Z,30.10
2022-08-01T17:17:35.239Z,30.11
2022-08-01T17:20:02.602Z,29.80
2022-08-01T17:22:29.727Z,29.83
2022-08-01T17:24:56.874Z,29.78
2022-08-01T17:27:24.021Z,29.52
2022-08-01T17:29:50.999Z,29.42
2022-08-01T17:32:18.069Z,29.14
2022-08-01T17:34:45.035Z,28.92
2022-08-01T17:37:12.214Z,28.64
2022-08-01T17:39:40.152Z,28.50
2022-08-01T17:42:09.180Z,28.53
2022-08-01T17:44:36.231Z,28.50
2022-08-01T17:47:05.598Z,28.56
2022-08-01T17:49:53.772Z,28.52
2022-08-01T17:52:20.314Z,28.37
2022-08-01T17:54:47.893Z,28.33
2022-08-01T17:57:14.934Z,28.26
2022-08-01T17:59:43.972Z,28.16
2022-08-01T18:02:11.706Z,27.90
2022-08-01T18:04:44.204Z,27.85
2022-08-01T18:07:13.396Z,27.74
2022-08-01T18:09:43.991Z,27.53
2022-08-01T18:12:14.298Z,27.42
2022-08-01T18:14:43.914Z,27.54
2022-08-01T18:17:11.627Z,27.52
2022-08-01T18:19:40.161Z,27.52
2022-08-01T18:22:31.545Z,27.53
2022-08-01T18:24:55.085Z,27.48
2022-08-01T18:27:22.042Z,27.53
2022-08-01T18:29:49.053Z,27.49
2022-08-01T18:32:16.133Z,27.43
2022-08-01T18:34:43.242Z,27.29
2022-08-01T18:37:13.416Z,27.26
2022-08-01T18:39:41.917Z,27.28
2022-08-01T18:42:10.925Z,27.08
2022-08-01T18:44:37.963Z,27.06
2022-08-01T18:47:05.830Z,27.10
2022-08-01T18:49:33.335Z,27.10
2022-08-01T18:52:00.382Z,27.06
2022-08-01T18:54:27.642Z,27.10
2022-08-01T18:56:54.614Z,27.10
2022-08-01T18:59:21.794Z,27.11
2022-08-01T19:01:49.429Z,27.10
2022-08-01T19:04:16.682Z,27.16
2022-08-01T19:06:43.687Z,27.14
2022-08-01T19:09:14.603Z,27.19
2022-08-01T19:11:48.097Z,27.26
2022-08-01T19:14:15.163Z,27.20
2022-08-01T19:16:42.164Z,27.08
2022-08-01T19:19:12.385Z,27.01
2022-08-01T19:21:44.773Z,26.94
2022-08-01T19:24:23.655Z,26.95
2022-08-01T19:27:08.489Z,26.95
2022-08-01T19:29:38.443Z,26.99
2022-08-01T19:32:09.185Z,27.08
2022-08-01T19:34:49.723Z,27.04
2022-08-01T19:37:16.810Z,26.99
2022-08-01T19:39:45.403Z,26.92
2022-08-01T19:42:13.384Z,26.81
2022-08-01T19:44:40.761Z,26.81
2022-08-01T19:47:09.715Z,26.77
2022-08-01T19:49:37.061Z,26.74
2022-08-01T19:52:04.682Z,26.70
2022-08-01T19:54:36.878Z,26.64
2022-08-01T19:57:06.743Z,26.68
2022-08-01T19:59:35.850Z,26.54
2022-08-01T20:02:04.075Z,26.57
2022-08-01T20:04:31.489Z,26.56
2022-08-01T20:06:58.683Z,26.58
2022-08-01T20:09:28.300Z,26.53
2022-08-01T20:11:55.439Z,26.51
2022-08-01T20:14:25.420Z,26.47
2022-08-01T20:16:54.923Z,26.41
2022-08-01T20:19:24.707Z,26.26
2022-08-01T20:22:03.214Z,26.17
2022-08-01T20:24:39.586Z,26.19
2022-08-01T20:27:10.207Z,26.18
2022-08-01T20:29:38.204Z,26.34
2022-08-01T20:32:06.275Z,26.30
2022-08-01T20:34:39.457Z,26.14
2022-08-01T20:37:13.345Z,26.19
2022-08-01T20:39:45.050Z,26.15
2022-08-01T20:42:14.458Z,26.17
2022-08-01T20:44:43.266Z,26.08
2022-08-01T20:47:10.551Z,26.02
2022-08-01T20:49:38.081Z,25.95
2022-08-01T20:52:11.029Z,25.68
2022-08-01T20:54:40.616Z,25.48
2022-08-01T20:57:32.213Z,25.43
2022-08-01T21:00:04.535Z,25.36
2022-08-01T21:03:02.854Z,25.33
2022-08-01T21:05:41.068Z,25.33
2022-08-01T21:08:17.611Z,25.28
2022-08-01T21:10:47.508Z,25.23
2022-08-01T21:13:23.613Z,25.17
2022-08-01T21:16:11.775Z,25.16
2022-08-01T21:19:19.572Z,25.08
2022-08-01T21:22:19.692Z,25.10
2022-08-01T21:25:00.070Z,25.04
2022-08-01T21:27:33.309Z,25.08
2022-08-01T21:30:04.678Z,25.08
2022-08-01T21:32:33.587Z,25.05
2022-08-01T21:35:01.765Z,25.08
2022-08-01T21:37:29.916Z,25.08
2022-08-01T21:40:00.003Z,25.03
2022-08-01T21:42:29.947Z,25.06
2022-08-01T21:45:02.084Z,25.08
2022-08-01T21:47:30.243Z,25.11
2022-08-01T21:50:02.963Z,25.13
2022-08-01T21:52:42.229Z,25.17
2022-08-01T21:55:51.715Z,25.15
2022-08-01T21:58:38.403Z,25.19
2022-08-01T22:01:18.733Z,25.15
2022-08-01T22:03:48.661Z,25.19
2022-08-01T22:06:19.363Z,25.13
2022-08-01T22:08:53.863Z,25.16
2022-08-01T22:11:28.923Z,25.05
2022-08-01T22:14:01.949Z,24.95
2022-08-01T22:16:31.593Z,24.91
2022-08-01T22:19:01.387Z,24.87
2022-08-01T22:21:28.698Z,24.84
2022-08-01T22:23:57.092Z,24.85
2022-08-01T22:26:29.164Z,24.78
2022-08-01T22:28:56.886Z,24.69
2022-08-01T22:31:24.473Z,24.72
2022-08-01T22:33:52.020Z,24.81
2022-08-01T22:36:20.356Z,24.77
2022-08-01T22:38:47.684Z,24.78
2022-08-01T22:41:19.404Z,24.77
2022-08-01T22:44:10.340Z,24.81
2022-08-01T22:46:43.411Z,24.72
2022-08-01T22:49:30.981Z,24.70
2022-08-01T22:52:12.704Z,24.66
2022-08-01T22:54:41.732Z,24.63
2022-08-01T22:57:20.307Z,24.58
2022-08-01T23:00:07.016Z,24.43
2022-08-01T23:02:40.044Z,24.38
2022-08-01T23:05:11.377Z,24.31
2022-08-01T23:07:40.179Z,24.22
2022-08-01T23:10:08.251Z,24.16
2022-08-01T23:12:36.884Z,24.00
2022-08-01T23:15:05.061Z,23.89
2022-08-01T23:17:32.756Z,23.58
2022-08-01T23:20:06.445Z,23.48
2022-08-01T23:22:36.213Z,23.16
2022-08-01T23:25:09.012Z,23.04
2022-08-01T23:28:04.536Z,22.94
2022-08-01T23:30:28.857Z,22.85
2022-08-01T23:32:56.082Z,22.76
2022-08-01T23:35:24.455Z,22.85
2022-08-01T23:37:52.133Z,22.87
2022-08-01T23:40:20.277Z,22.87
2022-08-01T23:42:47.488Z,22.86
2022-08-01T23:45:15.002Z,22.84
2022-08-01T23:47:42.122Z,22.64
2022-08-01T23:50:09.555Z,22.33
2022-08-01T23:52:42.587Z,22.10
2022-08-01T23:55:17.749Z,22.09
2022-08-01T23:57:44.733Z,22.19
